createdAt,value
2024-01-09T00:01:29.884Z,84.28
2024-01-09T00:06:32.862Z,84.57
2024-01-09T00:11:35.754Z,84.48
2024-01-09T00:16:38.723Z,84.40
2024-01-09T00:21:42.200Z,83.93
2024-01-09T00:26:47.334Z,84.87
2024-01-09T00:31:51.028Z,85.52
2024-01-09T00:36:54.137Z,85.16
2024-01-09T00:41:56.967Z,85.18
2024-01-09T00:47:01.763Z,84.60
2024-01-09T00:52:05.752Z,84.99
2024-01-09T00:57:09.116Z,85.80
2024-01-09T01:02:12.297Z,86.05
2024-01-09T01:07:15.844Z,85.82
2024-01-09T01:12:18.645Z,86.43
2024-01-09T01:17:21.601Z,86.88
2024-01-09T01:22:24.554Z,87.21
2024-01-09T01:27:27.951Z,90.59
2024-01-09T01:32:30.994Z,91.14
2024-01-09T01:37:34.742Z,92.88
2024-01-09T01:42:37.755Z,94.21
2024-01-09T01:47:40.846Z,91.86
2024-01-09T01:52:45.849Z,93.45
2024-01-09T01:57:51.842Z,93.30
2024-01-09T02:02:55.831Z,92.89
2024-01-09T02:08:00.299Z,93.14
2024-01-09T02:13:07.593Z,93.37
2024-01-09T02:18:11.523Z,92.57
2024-01-09T02:23:15.299Z,92.64
2024-01-09T02:28:26.824Z,92.38
2024-01-09T02:33:31.352Z,93.33
2024-01-09T02:38:37.548Z,93.58
2024-01-09T02:43:41.636Z,93.23
2024-01-09T02:48:45.418Z,92.65
2024-01-09T02:53:51.526Z,91.83
2024-01-09T02:58:54.742Z,93.45
2024-01-09T03:03:57.619Z,93.50
2024-01-09T03:08:59.983Z,94.07
2024-01-09T03:14:03.528Z,95.72
2024-01-09T03:19:07.101Z,97.06
2024-01-09T03:24:10.854Z,96.94
2024-01-09T03:29:14.697Z,97.13
2024-01-09T03:34:18.083Z,96.75
2024-01-09T03:39:21.063Z,96.93
2024-01-09T03:44:23.739Z,97.43
2024-01-09T03:49:26.416Z,97.37
2024-01-09T03:54:29.460Z,97.38
2024-01-09T03:59:32.407Z,97.75
2024-01-09T04:04:39.387Z,98.25
2024-01-09T04:09:43.061Z,98.91
2024-01-09T04:14:48.449Z,98.16
2024-01-09T04:19:53.394Z,98.36
2024-01-09T04:24:56.652Z,98.21
2024-01-09T04:29:59.994Z,97.79
2024-01-09T04:35:03.024Z,99.10
2024-01-09T04:40:07.462Z,99.64
2024-01-09T04:45:12.456Z,98.77
2024-01-09T04:50:18.344Z,99.03
2024-01-09T04:55:22.828Z,99.21
2024-01-09T05:00:27.293Z,100.00
2024-01-09T05:05:30.487Z,100.00
2024-01-09T05:10:36.538Z,100.00
2024-01-09T05:15:41.410Z,100.00
2024-01-09T05:20:46.879Z,100.00
2024-01-09T05:25:52.305Z,100.00
2024-01-09T05:30:56.922Z,100.00
2024-01-09T05:36:00.715Z,100.00
2024-01-09T05:41:04.332Z,100.00
2024-01-09T05:46:07.516Z,100.00
2024-01-09T05:51:12.925Z,100.00
2024-01-09T05:56:16.943Z,100.00
2024-01-09T06:01:21.530Z,99.51
2024-01-09T06:06:25.022Z,99.45
2024-01-09T06:11:29.317Z,98.38
2024-01-09T06:16:32.145Z,99.42
2024-01-09T06:21:35.652Z,100.00
2024-01-09T06:26:40.208Z,100.00
2024-01-09T06:31:43.565Z,100.00
2024-01-09T06:36:47.595Z,100.00
2024-01-09T06:41:51.993Z,100.00
2024-01-09T06:46:55.605Z,100.00
2024-01-09T06:51:59.417Z,100.00
2024-01-09T06:57:04.582Z,100.00
2024-01-09T07:02:07.967Z,100.00
2024-01-09T07:07:12.916Z,100.00
2024-01-09T07:12:17.989Z,100.00
2024-01-09T07:17:20.802Z,99.61
2024-01-09T07:22:24.470Z,99.27
2024-01-09T07:27:28.433Z,99.17
2024-01-09T07:32:31.343Z,100.00
2024-01-09T07:37:34.534Z,100.00
2024-01-09T07:42:43.496Z,100.00
2024-01-09T07:47:52.540Z,100.00
2024-01-09T07:52:55.536Z,100.00
2024-01-09T07:58:00.917Z,100.00
2024-01-09T08:03:05.597Z,100.00
2024-01-09T08:08:09.198Z,100.00
2024-01-09T08:13:12.689Z,100.00
2024-01-09T08:18:16.948Z,100.00
2024-01-09T08:23:20.152Z,100.00
2024-01-09T08:28:24.887Z,100.00
2024-01-09T08:33:32.601Z,100.00
2024-01-09T08:38:36.064Z,100.00
2024-01-09T08:43:38.722Z,100.00
2024-01-09T08:48:42.818Z,100.00
2024-01-09T08:53:46.815Z,100.00
2024-01-09T08:58:51.755Z,100.00
2024-01-09T09:03:54.782Z,98.64
2024-01-09T09:08:58.041Z,95.48
2024-01-09T09:14:14.703Z,94.77
2024-01-09T09:19:20.200Z,94.03
2024-01-09T09:24:23.256Z,92.52
2024-01-09T09:29:36.242Z,92.40
2024-01-09T09:34:44.797Z,92.36
2024-01-09T09:39:49.281Z,91.94
2024-01-09T09:44:53.606Z,92.33
2024-01-09T09:49:57.615Z,93.36
2024-01-09T09:55:01.881Z,91.93
2024-01-09T10:00:12.161Z,92.56
2024-01-09T10:05:18.032Z,91.04
2024-01-09T10:10:22.214Z,90.92
2024-01-09T10:15:25.270Z,90.82
2024-01-09T10:20:31.655Z,86.98
2024-01-09T10:25:34.524Z,80.62
2024-01-09T10:30:43.986Z,79.76
2024-01-09T10:35:48.019Z,79.13
2024-01-09T10:40:57.074Z,80.07
2024-01-09T10:46:04.165Z,79.18
2024-01-09T10:51:07.840Z,81.73
2024-01-09T10:56:11.005Z,82.26
2024-01-09T11:01:15.061Z,82.12
2024-01-09T11:06:18.687Z,82.01
2024-01-09T11:11:23.836Z,82.46
2024-01-09T11:16:27.646Z,82.49
2024-01-09T11:21:32.137Z,83.41
2024-01-09T11:26:36.642Z,83.61
2024-01-09T11:31:42.052Z,83.83
2024-01-09T11:36:45.238Z,85.46
2024-01-09T11:41:51.643Z,85.47
2024-01-09T11:46:55.076Z,87.29
2024-01-09T11:51:58.764Z,86.43
2024-01-09T11:57:02.182Z,86.63
2024-01-09T12:02:08.675Z,86.74
2024-01-09T12:07:13.955Z,88.24
2024-01-09T12:12:25.004Z,87.28
2024-01-09T12:17:37.940Z,86.29
2024-01-09T12:22:41.189Z,85.56
2024-01-09T12:27:43.886Z,86.49
2024-01-09T12:32:47.384Z,88.25
2024-01-09T12:37:51.802Z,88.02
2024-01-09T12:43:14.188Z,88.33
2024-01-09T12:48:17.366Z,87.69
2024-01-09T12:53:21.695Z,87.74
2024-01-09T12:58:25.827Z,87.10
2024-01-09T13:03:29.808Z,85.55
2024-01-09T13:08:35.951Z,86.19
2024-01-09T13:13:44.397Z,85.11
2024-01-09T13:18:48.975Z,83.93
2024-01-09T13:23:54.081Z,83.32
2024-01-09T13:34:05.665Z,84.47
2024-01-09T13:39:11.411Z,83.80
2024-01-09T13:44:16.580Z,85.86
2024-01-09T13:49:19.513Z,84.02
2024-01-09T13:54:27.077Z,85.42
2024-01-09T13:59:30.584Z,85.24
2024-01-09T14:04:33.930Z,85.27
2024-01-09T14:09:41.360Z,87.32
2024-01-09T14:14:44.617Z,87.72
2024-01-09T14:19:47.961Z,88.15
2024-01-09T14:24:51.409Z,87.46
2024-01-09T14:29:56.092Z,86.11
2024-01-09T14:34:59.854Z,87.22
2024-01-09T14:40:14.349Z,85.28
2024-01-09T14:45:18.964Z,85.21
2024-01-09T14:50:22.939Z,83.69
2024-01-09T14:55:28.810Z,83.71
2024-01-09T15:00:32.446Z,84.05
2024-01-09T15:05:35.582Z,83.96
2024-01-09T15:10:38.607Z,85.08
2024-01-09T15:15:41.615Z,84.86
2024-01-09T15:20:44.526Z,86.16
2024-01-09T15:25:48.205Z,86.95
2024-01-09T15:30:52.525Z,86.94
2024-01-09T15:35:58.906Z,86.16
2024-01-09T15:41:11.018Z,87.44
2024-01-09T15:46:14.128Z,86.22
2024-01-09T15:51:20.622Z,86.42
2024-01-09T15:56:25.887Z,86.28
2024-01-09T16:01:28.840Z,87.13
2024-01-09T16:06:34.600Z,87.81
2024-01-09T16:11:38.983Z,86.47
2024-01-09T16:16:43.389Z,87.44
2024-01-09T16:21:46.904Z,87.50
2024-01-09T16:26:49.810Z,88.48
2024-01-09T16:31:54.012Z,88.53
2024-01-09T16:36:57.052Z,89.50
2024-01-09T16:42:01.412Z,90.29
2024-01-09T16:47:04.917Z,89.64
2024-01-09T16:52:09.114Z,90.77
2024-01-09T16:57:19.829Z,91.33
2024-01-09T17:02:24.198Z,91.60
2024-01-09T17:07:28.641Z,92.60
2024-01-09T17:12:35.546Z,93.21
2024-01-09T17:17:45.707Z,93.36
2024-01-09T17:22:49.403Z,93.42
2024-01-09T17:27:54.156Z,93.87
2024-01-09T17:32:58.413Z,94.57
2024-01-09T17:38:00.939Z,95.56
2024-01-09T17:43:05.223Z,95.30
2024-01-09T17:48:08.726Z,95.03
2024-01-09T17:53:12.218Z,95.70
2024-01-09T17:58:15.139Z,95.18
2024-01-09T18:03:18.820Z,95.47
2024-01-09T18:08:21.895Z,95.69
2024-01-09T18:13:25.295Z,95.70
2024-01-09T18:18:30.523Z,96.00
2024-01-09T18:23:33.322Z,96.33
2024-01-09T18:28:40.556Z,96.75
2024-01-09T18:33:46.712Z,96.90
2024-01-09T18:38:50.058Z,97.15
2024-01-09T18:43:54.846Z,96.90
2024-01-09T18:48:59.870Z,97.13
2024-01-09T18:54:04.302Z,97.23
2024-01-09T18:59:07.913Z,96.90
2024-01-09T19:04:12.346Z,97.42
2024-01-09T19:09:16.811Z,97.52
2024-01-09T19:14:20.957Z,97.70
2024-01-09T19:19:25.943Z,97.91
2024-01-09T19:24:29.612Z,97.89
2024-01-09T19:29:33.297Z,98.27
2024-01-09T19:34:41.471Z,98.09
2024-01-09T19:40:05.115Z,98.54
2024-01-09T19:45:24.936Z,98.38
2024-01-09T19:50:28.787Z,98.72
2024-01-09T19:55:35.557Z,98.83
2024-01-09T20:00:43.039Z,99.17
2024-01-09T20:05:49.522Z,99.98
2024-01-09T20:10:55.091Z,100.00
2024-01-09T20:15:59.299Z,100.00
2024-01-09T20:21:04.969Z,100.00
2024-01-09T20:26:09.074Z,100.00
2024-01-09T20:31:12.086Z,100.00
2024-01-09T20:36:14.978Z,100.00
2024-01-09T20:41:19.067Z,100.00
2024-01-09T20:46:22.363Z,100.00
2024-01-09T20:51:26.993Z,100.00
2024-01-09T20:56:29.564Z,100.00
2024-01-09T21:01:36.469Z,100.00
2024-01-09T21:06:40.573Z,100.00
2024-01-09T21:11:46.494Z,100.00
2024-01-09T21:16:49.329Z,100.00
2024-01-09T21:21:52.037Z,100.00
2024-01-09T21:26:55.263Z,100.00
2024-01-09T21:31:57.772Z,100.00
2024-01-09T21:37:00.300Z,100.00
2024-01-09T21:42:03.103Z,100.00
2024-01-09T21:47:07.334Z,100.00
2024-01-09T21:52:13.341Z,100.00
2024-01-09T21:57:16.581Z,100.00
2024-01-09T22:02:27.653Z,100.00
2024-01-09T22:07:30.646Z,100.00
2024-01-09T22:12:34.733Z,100.00
2024-01-09T22:17:38.766Z,100.00
2024-01-09T22:22:43.109Z,100.00
2024-01-09T22:27:46.114Z,100.00
2024-01-09T22:32:49.828Z,100.00
2024-01-09T22:37:53.057Z,100.00
2024-01-09T22:42:57.713Z,100.00
2024-01-09T22:48:04.047Z,100.00
2024-01-09T22:53:11.412Z,100.00
2024-01-09T22:58:15.804Z,100.00
2024-01-09T23:03:20.356Z,100.00
2024-01-09T23:08:24.456Z,100.00
2024-01-09T23:13:28.391Z,100.00
2024-01-09T23:18:32.385Z,100.00
2024-01-09T23:23:36.020Z,100.00
2024-01-09T23:28:40.141Z,100.00
2024-01-09T23:33:43.689Z,100.00
2024-01-09T23:38:47.332Z,100.00
2024-01-09T23:43:50.953Z,100.00
2024-01-09T23:48:54.085Z,100.00
2024-01-09T23:53:56.991Z,100.00
2024-01-09T23:59:00.958Z,100.00
